Terminal Aerodrome Forecast
Issued by NWS

Home | Current Version | Previous Version | Graphics & Text | Print | Product List | Glossary On
Versions: 1 2 3 4 5 6 7 8 9 10 11 12 13
480
FTUS43 KIWX 271222 AAA
TAFSBN
TAF AMD
KSBN 271222Z 2712/2812 02005KT P6SM OVC006
     FM271400 01005KT P6SM BKN015
     FM271700 36005KT P6SM BKN035
     FM272100 33004KT P6SM SCT040=

USA.gov is the U.S. government's official web portal to all federal, state and local government web resources and services.